Main page
METAR-TAF:

METAR-TAF

Airports :

Riga International Airport

Riga, Latvia

latitude: 56-55N, longitude: 023-58E, elevation: 10 m

Current weather observation

The report was made 10 minutes ago, at 00:50 UTC
Wind 2 kt from the South
Temperature -5°C
Humidity 93%
Pressure 1020 hPa
Visibility 10 km or more
no clouds below 1500 m and no cumulonimbus

METAR: EVRA 110050Z 17002KT CAVOK M05/M06 Q1020 NOSIG

Time: 04:00 (01:00 UTC)

Forecast

The report was made 2 hours and 0 minutes ago, at 23:00 UTC
Forecast valid from 11 at 00 UTC to 11 at 24 UTC
Wind 7 kt from the Southeast
Visibility 10 km or more
no clouds below 1500 m and no cumulonimbus
Temporary
from 11 at 00 UTC to 11 at 06 UTC
Visibility: 3000 m
mist
Probability 40% :
Temporary
from 11 at 12 UTC to 11 at 15 UTC
Visibility: 4000 m
Broken clouds at a height of 1200 ft
rain

TAF: EVRA 102300Z 1100/1124 13007KT CAVOK TEMPO 1100/1106 3000 BR PROB40 TEMPO 1112/1115 4000 RA BKN012

Weather observations and forecasts of more than 4000 airports (METAR and TAF reports).

The available stations are represented by yellow and red dots on the map.

Hover mouse over dot to see the name of the station.

Then click to see weather observations and forecasts.

To change the map : click on the green buttons with a black cross to zoom in, on the green button with a dash to zoom out, or on the green arrows for adjacent maps.


METAR-TAF: